Time;durP1;ratioP1;P1;durP2;ratioP2;P2;SDS_P1;SDS_P2;PMS_P1;PMS_P2;Temp;Humidity;BMP_temperature;BMP_pressure;BME280_temperature;BME280_humidity;BME280_pressure;Samples;Min_cycle;Max_cycle;Signal;HPM_P1;HPM_P2
2023/07/31 00:00:46;;;;;;;4.47;2.67;;;;;;;23.74;59.74;99241.97;4487403;31;33362;-72
2023/07/31 00:03:14;;;;;;;7.07;3.15;;;;;;;23.74;59.74;99250.19;4497977;31;33148;-70
2023/07/31 00:05:41;;;;;;;4.85;3.15;;;;;;;23.82;59.40;99239.03;4483100;31;33852;-71
2023/07/31 00:08:09;;;;;;;4.30;2.25;;;;;;;23.88;59.17;99248.25;4493522;31;34659;-71
2023/07/31 00:10:37;;;;;;;8.13;3.47;;;;;;;23.72;59.83;99252.28;4490580;31;33202;-71
2023/07/31 00:13:05;;;;;;;4.18;2.22;;;;;;;23.46;60.68;99253.09;4476614;31;34479;-71
2023/07/31 00:15:32;;;;;;;5.15;2.47;;;;;;;23.74;59.94;99244.72;4484359;31;33833;-70
2023/07/31 00:18:01;;;;;;;4.50;2.67;;;;;;;23.79;59.66;99246.78;4483206;32;34889;-70
2023/07/31 00:20:28;;;;;;;4.18;2.05;;;;;;;23.98;59.04;99242.34;4478568;31;34851;-70
2023/07/31 00:22:56;;;;;;;6.47;2.83;;;;;;;24.07;58.54;99247.37;4492258;31;33485;-69
2023/07/31 00:25:23;;;;;;;6.50;3.00;;;;;;;24.07;58.39;99254.75;4487782;31;35004;-70
2023/07/31 00:27:51;;;;;;;4.90;2.67;;;;;;;24.18;58.07;99252.19;4480713;31;34701;-70
2023/07/31 00:30:19;;;;;;;5.07;2.62;;;;;;;24.25;57.95;99260.38;4487772;31;33570;-70
2023/07/31 00:32:46;;;;;;;8.82;2.80;;;;;;;24.03;58.42;99257.06;4492909;31;33351;-69
2023/07/31 00:35:14;;;;;;;4.32;2.35;;;;;;;24.09;58.20;99258.09;4498534;31;34617;-69
2023/07/31 00:37:41;;;;;;;4.10;2.37;;;;;;;24.01;58.43;99267.38;4482733;31;35041;-70
2023/07/31 00:40:09;;;;;;;5.45;2.87;;;;;;;23.79;59.36;99260.47;4481987;31;33943;-72
2023/07/31 00:42:37;;;;;;;8.98;3.53;;;;;;;23.82;59.34;99255.44;4493977;31;32852;-71
2023/07/31 00:45:05;;;;;;;12.37;3.37;;;;;;;23.34;61.04;99268.41;4488463;31;35073;-70
2023/07/31 00:47:33;;;;;;;6.30;2.53;;;;;;;23.28;61.46;99264.66;4484884;31;34222;-71
2023/07/31 00:50:01;;;;;;;5.25;2.85;;;;;;;23.28;61.26;99261.09;4479181;31;33622;-71
2023/07/31 00:52:28;;;;;;;9.65;3.00;;;;;;;23.57;60.21;99274.34;4490248;31;33019;-71
2023/07/31 00:54:56;;;;;;;4.07;2.33;;;;;;;23.39;60.71;99266.75;4480875;31;34907;-71
2023/07/31 00:57:23;;;;;;;5.10;2.47;;;;;;;23.11;61.95;99266.09;4490401;31;34459;-72
2023/07/31 00:59:51;;;;;;;5.40;2.90;;;;;;;23.32;61.13;99260.44;4486841;31;34481;-71
2023/07/31 01:02:20;;;;;;;5.37;2.67;;;;;;;22.85;62.75;99264.94;4492402;31;33788;-71
2023/07/31 01:04:47;;;;;;;3.70;2.33;;;;;;;22.89;62.62;99271.69;4487353;31;34693;-69
2023/07/31 01:07:23;;;;;;;4.30;2.55;;;;;;;23.00;62.04;99279.31;4478369;31;33800;-69
2023/07/31 01:10:20;;;;;;;8.45;3.15;;;;;;;23.53;60.11;99270.34;4480451;31;33471;-69
2023/07/31 01:12:48;;;;;;;7.20;2.80;;;;;;;23.57;59.71;99277.06;4419224;32;33035;-70
2023/07/31 01:15:17;;;;;;;4.25;2.65;;;;;;;23.69;59.31;99282.75;4412864;32;35401;-69
2023/07/31 01:17:45;;;;;;;4.65;2.60;;;;;;;23.68;59.39;99281.03;4431095;32;33919;-69
2023/07/31 01:20:23;;;;;;;5.37;2.60;;;;;;;23.63;59.63;99289.88;4433796;32;34015;-69
2023/07/31 01:23:06;;;;;;;4.82;2.67;;;;;;;23.76;59.30;99291.81;4413141;32;33393;-69
2023/07/31 01:25:48;;;;;;;7.07;2.97;;;;;;;23.71;59.36;99295.16;4415379;32;34053;-69
2023/07/31 01:28:20;;;;;;;8.88;2.72;;;;;;;23.87;58.67;99293.03;4421372;32;34237;-68
2023/07/31 01:30:48;;;;;;;6.43;3.33;;;;;;;23.88;58.50;99287.38;4433666;32;32494;-69
2023/07/31 01:33:16;;;;;;;5.53;2.97;;;;;;;23.79;58.98;99279.59;4422127;32;33031;-69
2023/07/31 01:35:46;;;;;;;5.68;2.67;;;;;;;23.93;58.41;99279.38;4394969;32;34585;-66
2023/07/31 01:38:13;;;;;;;5.68;2.95;;;;;;;23.79;58.70;99277.72;4397799;32;34821;-66
2023/07/31 01:40:42;;;;;;;4.93;2.75;;;;;;;23.62;59.34;99279.16;4393281;32;33822;-66
2023/07/31 01:43:10;;;;;;;7.37;2.75;;;;;;;23.82;58.29;99263.63;4407050;32;34539;-66
2023/07/31 01:45:37;;;;;;;5.30;2.55;;;;;;;23.79;58.32;99261.31;4403097;32;33533;-66
2023/07/31 01:48:05;;;;;;;5.30;2.72;;;;;;;23.67;58.50;99258.34;4400124;32;34807;-66
2023/07/31 01:50:33;;;;;;;4.87;2.17;;;;;;;23.94;57.61;99259.19;4439466;32;31758;-66
2023/07/31 01:53:00;;;;;;;4.18;2.35;;;;;;;23.66;58.49;99253.94;4461236;32;32848;-66
2023/07/31 01:55:28;;;;;;;3.70;2.35;;;;;;;23.68;58.15;99253.72;4465663;32;33445;-66
2023/07/31 01:57:55;;;;;;;9.43;2.95;;;;;;;23.44;58.98;99252.50;4470179;32;35240;-67
2023/07/31 02:00:23;;;;;;;3.12;1.92;;;;;;;23.45;58.43;99252.25;4469632;32;33965;-67
2023/07/31 02:02:51;;;;;;;2.78;1.40;;;;;;;23.15;58.84;99259.19;4465766;32;33205;-67
2023/07/31 02:05:19;;;;;;;4.10;1.90;;;;;;;23.49;57.58;99255.41;4480013;32;33752;-67
2023/07/31 02:07:47;;;;;;;3.40;1.73;;;;;;;23.39;58.03;99250.38;4490276;31;35151;-67
2023/07/31 02:10:15;;;;;;;3.70;1.65;;;;;;;23.15;58.51;99254.56;4478720;31;33606;-67
2023/07/31 02:12:43;;;;;;;3.53;2.12;;;;;;;23.65;56.95;99259.59;4493331;31;33233;-67
2023/07/31 02:15:10;;;;;;;3.67;1.87;;;;;;;23.57;57.32;99255.22;4488145;31;33963;-67
2023/07/31 02:17:38;;;;;;;3.75;2.15;;;;;;;23.87;56.24;99252.06;4498107;31;33935;-67
2023/07/31 02:20:07;;;;;;;4.78;2.42;;;;;;;23.29;57.59;99260.88;4492724;31;34081;-67
2023/07/31 02:22:34;;;;;;;3.42;1.98;;;;;;;23.54;57.28;99268.47;4487756;31;33551;-67
2023/07/31 02:25:02;;;;;;;2.83;1.65;;;;;;;23.12;58.74;99267.78;4493797;31;34159;-67
2023/07/31 02:27:30;;;;;;;6.80;2.03;;;;;;;23.66;56.69;99258.56;4490634;31;34126;-66
2023/07/31 02:29:59;;;;;;;3.80;1.58;;;;;;;23.58;57.42;99266.97;4466963;31;34643;-67
2023/07/31 02:32:26;;;;;;;4.37;2.37;;;;;;;23.69;56.47;99269.09;4474291;31;34341;-67
2023/07/31 02:34:54;;;;;;;4.22;2.05;;;;;;;23.55;56.75;99268.22;4480230;31;32554;-67
2023/07/31 02:37:23;;;;;;;4.10;1.60;;;;;;;23.80;56.11;99279.41;4488032;31;33606;-67
2023/07/31 02:39:50;;;;;;;3.92;1.55;;;;;;;23.82;55.90;99268.22;4485066;31;33454;-66
2023/07/31 02:42:18;;;;;;;5.07;2.05;;;;;;;23.72;56.10;99268.66;4480308;31;33056;-66
2023/07/31 02:44:45;;;;;;;3.75;2.20;;;;;;;23.46;56.82;99273.06;4493341;31;33883;-66
2023/07/31 02:47:13;;;;;;;5.10;2.12;;;;;;;23.74;55.86;99287.59;4498679;31;33622;-66
2023/07/31 02:49:40;;;;;;;2.58;1.67;;;;;;;23.66;56.30;99294.09;4473133;31;33801;-66
2023/07/31 02:52:08;;;;;;;2.17;1.17;;;;;;;23.50;56.65;99295.34;4499900;31;34445;-67
2023/07/31 02:54:35;;;;;;;4.20;1.85;;;;;;;23.58;56.26;99291.56;4485298;31;33938;-67
2023/07/31 02:57:04;;;;;;;5.15;1.90;;;;;;;23.60;55.92;99290.31;4497054;31;33959;-67
2023/07/31 02:59:31;;;;;;;3.55;1.55;;;;;;;23.73;55.61;99286.75;4495374;31;33992;-67
2023/07/31 03:01:59;;;;;;;7.35;1.30;;;;;;;23.63;55.86;99295.34;4584415;26;34335;-65
2023/07/31 03:04:27;;;;;;;5.60;1.62;;;;;;;23.61;55.88;99293.88;4462911;32;34705;-65
2023/07/31 03:06:55;;;;;;;3.75;1.80;;;;;;;23.60;55.48;99298.50;4468873;32;35351;-65
2023/07/31 03:09:23;;;;;;;3.67;1.70;;;;;;;23.52;55.30;99303.31;4468406;32;34618;-65
2023/07/31 03:11:51;;;;;;;4.60;1.95;;;;;;;23.46;55.49;99305.81;4470551;32;33097;-65
2023/07/31 03:14:18;;;;;;;3.30;1.83;;;;;;;23.31;56.18;99318.00;4468721;32;35143;-66
2023/07/31 03:16:46;;;;;;;3.58;1.55;;;;;;;23.37;55.56;99319.88;4468274;32;33932;-65
2023/07/31 03:19:14;;;;;;;3.78;1.90;;;;;;;23.23;56.19;99314.41;4478739;32;33495;-65
2023/07/31 03:21:41;;;;;;;4.05;1.95;;;;;;;22.94;56.93;99322.94;4467970;32;33217;-66
2023/07/31 03:24:09;;;;;;;1.83;1.20;;;;;;;23.22;56.16;99323.66;4468656;32;33613;-65
2023/07/31 03:26:38;;;;;;;4.03;1.77;;;;;;;23.39;55.56;99321.38;4471544;32;34848;-65
2023/07/31 03:29:05;;;;;;;3.50;1.50;;;;;;;23.38;55.82;99322.44;4468308;32;33571;-65
2023/07/31 03:31:33;;;;;;;4.32;1.77;;;;;;;23.47;55.27;99318.44;4462325;32;33360;-65
2023/07/31 03:34:01;;;;;;;2.72;1.52;;;;;;;23.45;55.46;99314.25;4468498;32;34886;-65
2023/07/31 03:36:30;;;;;;;2.10;1.20;;;;;;;23.57;55.05;99328.97;4475035;32;34513;-65
2023/07/31 03:38:57;;;;;;;3.58;1.45;;;;;;;23.56;54.74;99324.53;4466161;32;33651;-65
2023/07/31 03:41:26;;;;;;;4.85;1.85;;;;;;;23.58;54.68;99327.06;4466115;32;33099;-65
2023/07/31 03:43:55;;;;;;;3.62;1.87;;;;;;;23.63;54.66;99319.09;4467323;32;33733;-64
2023/07/31 03:46:26;;;;;;;3.65;1.80;;;;;;;23.53;54.61;99324.97;4464878;32;33834;-65
2023/07/31 03:48:54;;;;;;;3.00;1.40;;;;;;;23.68;54.18;99322.91;4449848;32;33845;-65
2023/07/31 03:51:23;;;;;;;2.37;1.20;;;;;;;23.70;53.96;99322.69;4466693;32;34743;-65
2023/07/31 03:53:50;;;;;;;2.83;1.40;;;;;;;23.58;54.53;99325.16;4466176;32;35059;-65
2023/07/31 03:56:18;;;;;;;7.30;1.95;;;;;;;23.69;54.05;99323.72;4469040;32;33829;-65
2023/07/31 03:58:46;;;;;;;2.67;1.30;;;;;;;23.62;53.94;99318.22;4467005;32;34503;-65
2023/07/31 04:01:13;;;;;;;4.25;1.85;;;;;;;23.52;54.89;99333.38;4465912;32;33040;-64
2023/07/31 04:03:41;;;;;;;4.12;1.77;;;;;;;23.77;54.03;99329.00;4468279;32;35312;-65
2023/07/31 04:06:10;;;;;;;2.67;1.58;;;;;;;23.90;53.60;99329.00;4468097;32;34385;-65
2023/07/31 04:08:37;;;;;;;6.43;1.77;;;;;;;23.94;53.53;99329.41;4478315;32;34678;-65
2023/07/31 04:11:05;;;;;;;4.07;1.83;;;;;;;23.80;53.78;99322.28;4465728;32;34134;-65
2023/07/31 04:13:33;;;;;;;2.55;1.35;;;;;;;23.87;53.26;99323.94;4457026;32;33540;-65
2023/07/31 04:16:01;;;;;;;3.00;1.42;;;;;;;23.90;53.30;99319.97;4472928;32;33754;-65
2023/07/31 04:18:30;;;;;;;2.47;1.30;;;;;;;23.92;53.23;99318.69;4467420;32;33623;-65
2023/07/31 04:20:58;;;;;;;2.35;1.35;;;;;;;23.93;53.09;99328.56;4471675;32;34186;-65
2023/07/31 04:23:26;;;;;;;3.75;1.98;;;;;;;23.96;52.91;99327.31;4468559;32;33861;-65
2023/07/31 04:25:54;;;;;;;2.50;1.30;;;;;;;23.93;52.90;99325.84;4461067;32;35266;-65
2023/07/31 04:28:21;;;;;;;4.25;1.70;;;;;;;23.93;53.02;99322.25;4463832;32;33927;-65
2023/07/31 04:30:49;;;;;;;2.67;1.73;;;;;;;23.89;53.50;99323.75;4461788;32;32911;-65
2023/07/31 04:33:18;;;;;;;2.80;1.67;;;;;;;23.90;52.96;99326.25;4470226;32;36498;-65
2023/07/31 04:35:52;;;;;;;2.20;1.23;;;;;;;23.81;53.22;99323.94;4460905;32;33992;-65
2023/07/31 04:38:21;;;;;;;3.20;1.60;;;;;;;23.80;53.36;99325.84;4465850;32;33991;-65
2023/07/31 04:40:49;;;;;;;3.70;1.27;;;;;;;23.87;53.48;99320.38;4462397;32;34767;-65
2023/07/31 04:43:16;;;;;;;3.90;1.40;;;;;;;23.36;54.50;99324.50;4469335;32;34058;-64
2023/07/31 04:45:47;;;;;;;2.92;1.48;;;;;;;23.00;55.57;99322.97;4461843;32;33874;-65
2023/07/31 04:48:15;;;;;;;3.35;1.37;;;;;;;23.44;55.01;99324.31;4476014;32;34536;-65
2023/07/31 04:50:43;;;;;;;3.58;1.52;;;;;;;23.63;54.03;99319.09;4464548;32;32963;-65
2023/07/31 04:53:11;;;;;;;3.62;1.58;;;;;;;23.76;53.45;99316.41;4459895;32;33967;-65
2023/07/31 04:55:38;;;;;;;2.55;1.40;;;;;;;23.57;53.22;99333.59;4455510;32;33838;-66
2023/07/31 04:58:06;;;;;;;6.37;1.50;;;;;;;23.46;53.98;99335.88;4464678;32;33622;-64
2023/07/31 05:00:33;;;;;;;2.33;1.08;;;;;;;23.27;53.82;99330.37;4463241;32;32243;-66
2023/07/31 05:03:01;;;;;;;2.60;1.25;;;;;;;22.98;53.30;99329.66;4469392;32;33630;-65
2023/07/31 05:05:29;;;;;;;2.45;1.15;;;;;;;23.26;51.29;99329.53;4463652;32;33752;-65
2023/07/31 05:07:57;;;;;;;4.30;1.37;;;;;;;23.01;52.31;99323.81;4471510;32;33592;-65
2023/07/31 05:10:24;;;;;;;8.20;1.42;;;;;;;22.88;51.21;99326.47;4463599;32;33195;-64
2023/07/31 05:12:52;;;;;;;1.75;1.23;;;;;;;22.07;53.81;99319.72;4478654;32;33665;-64
2023/07/31 05:15:20;;;;;;;2.03;1.10;;;;;;;21.79;52.77;99307.97;4469525;32;34743;-64
2023/07/31 05:17:47;;;;;;;3.22;1.33;;;;;;;21.78;53.74;99309.03;4468298;32;33836;-64
2023/07/31 05:20:15;;;;;;;2.58;1.17;;;;;;;21.95;53.37;99318.59;4471536;32;34796;-64
2023/07/31 05:22:43;;;;;;;2.42;1.02;;;;;;;22.32;51.71;99309.22;4471397;32;33923;-64
2023/07/31 05:25:10;;;;;;;4.50;1.20;;;;;;;22.37;50.97;99314.06;4467491;32;33783;-64
2023/07/31 05:27:38;;;;;;;2.80;1.08;;;;;;;21.67;52.93;99315.87;4452722;32;35099;-66
2023/07/31 05:30:06;;;;;;;2.97;1.15;;;;;;;21.96;52.61;99313.97;4460536;32;34336;-66
2023/07/31 05:32:34;;;;;;;3.33;1.15;;;;;;;21.74;52.42;99313.19;4469444;32;34693;-67
2023/07/31 05:35:02;;;;;;;3.37;1.42;;;;;;;21.81;52.03;99316.81;4466926;32;34721;-66
2023/07/31 05:37:30;;;;;;;2.87;1.45;;;;;;;21.89;52.46;99313.94;4467768;32;33464;-66
2023/07/31 05:39:57;;;;;;;4.20;1.05;;;;;;;22.40;50.71;99312.81;4471013;32;33405;-66
2023/07/31 05:42:25;;;;;;;3.75;1.33;;;;;;;21.81;51.41;99311.38;4467455;32;33569;-67
2023/07/31 05:44:53;;;;;;;5.72;1.85;;;;;;;22.23;50.48;99318.59;4467973;32;35061;-68
2023/07/31 05:47:20;;;;;;;2.08;1.30;;;;;;;22.05;51.18;99321.81;4466636;32;33612;-68
2023/07/31 05:49:49;;;;;;;2.30;0.95;;;;;;;21.46;52.07;99318.59;4462788;32;33256;-64
2023/07/31 05:52:17;;;;;;;7.12;1.37;;;;;;;21.25;52.16;99313.97;4466239;32;34993;-63
2023/07/31 05:54:45;;;;;;;3.62;1.55;;;;;;;21.99;51.56;99321.75;4468125;32;35255;-63
2023/07/31 05:57:13;;;;;;;4.00;1.62;;;;;;;21.81;51.47;99327.72;4461182;32;33586;-64
2023/07/31 05:59:41;;;;;;;3.33;1.42;;;;;;;21.60;50.82;99317.66;4473448;32;33963;-63
2023/07/31 06:02:08;;;;;;;4.03;1.62;;;;;;;22.06;51.08;99319.94;4464574;32;34705;-64
2023/07/31 06:04:36;;;;;;;3.55;1.55;;;;;;;22.16;50.48;99323.19;4463591;32;35441;-62
2023/07/31 06:07:04;;;;;;;2.65;1.05;;;;;;;22.21;50.38;99317.09;4453401;32;33410;-63
2023/07/31 06:09:32;;;;;;;4.05;1.75;;;;;;;22.69;49.35;99325.34;4458220;32;32940;-63
2023/07/31 06:12:00;;;;;;;5.47;1.05;;;;;;;21.97;50.68;99329.31;4467802;32;33660;-62
2023/07/31 06:14:27;;;;;;;14.25;1.98;;;;;;;22.09;51.14;99325.00;4465856;32;33992;-62
2023/07/31 06:16:55;;;;;;;3.28;1.27;;;;;;;22.34;50.59;99330.81;4464384;32;33731;-63
2023/07/31 06:19:23;;;;;;;2.00;1.17;;;;;;;22.27;50.42;99335.38;4466874;32;33303;-63
2023/07/31 06:21:50;;;;;;;3.22;1.58;;;;;;;22.79;49.83;99336.69;4466798;32;33733;-63
2023/07/31 06:24:20;;;;;;;7.25;1.67;;;;;;;23.01;49.04;99334.72;4468051;32;34086;-63
2023/07/31 06:26:48;;;;;;;2.35;1.15;;;;;;;22.34;50.03;99336.25;4469095;32;33668;-63
2023/07/31 06:29:16;;;;;;;2.17;1.15;;;;;;;23.08;48.87;99330.16;4467615;32;33500;-64
2023/07/31 06:31:43;;;;;;;2.35;1.00;;;;;;;22.90;48.20;99336.13;4459910;32;33729;-63
2023/07/31 06:34:11;;;;;;;7.28;1.75;;;;;;;22.46;49.23;99322.91;4462215;32;34089;-64
2023/07/31 06:36:39;;;;;;;5.95;1.20;;;;;;;22.78;48.25;99341.31;4468572;32;33574;-63
2023/07/31 06:39:07;;;;;;;1.52;0.90;;;;;;;22.44;48.77;99338.63;4475256;32;33007;-63
2023/07/31 06:41:35;;;;;;;2.35;0.98;;;;;;;22.87;47.79;99333.81;4467860;32;33936;-63
2023/07/31 06:44:03;;;;;;;2.20;1.00;;;;;;;22.72;48.38;99333.09;4466168;32;33753;-64
2023/07/31 06:46:30;;;;;;;2.28;1.12;;;;;;;22.69;48.63;99345.25;4468897;32;34193;-63
2023/07/31 06:48:58;;;;;;;2.17;1.15;;;;;;;22.36;49.04;99342.38;4468316;32;34171;-63
2023/07/31 06:51:26;;;;;;;2.47;1.17;;;;;;;22.82;47.87;99349.09;4460139;32;33725;-62
2023/07/31 06:53:53;;;;;;;3.75;1.30;;;;;;;22.05;50.06;99346.34;4468575;32;33951;-62
2023/07/31 06:56:22;;;;;;;1.85;1.08;;;;;;;22.14;49.47;99355.19;4468691;32;34755;-62
2023/07/31 06:58:49;;;;;;;2.33;0.93;;;;;;;22.49;48.27;99357.97;4466722;32;34306;-61
2023/07/31 07:01:17;;;;;;;3.62;1.35;;;;;;;22.81;48.19;99367.38;4465576;32;34110;-63
2023/07/31 07:03:45;;;;;;;6.07;1.85;;;;;;;22.75;47.74;99366.28;4475714;32;34054;-62
2023/07/31 07:06:12;;;;;;;3.95;1.33;;;;;;;22.08;49.51;99373.19;4478386;32;34024;-62
2023/07/31 07:08:40;;;;;;;5.40;1.10;;;;;;;22.19;49.61;99374.56;4466098;32;33586;-63
2023/07/31 07:11:08;;;;;;;3.20;1.40;;;;;;;22.38;49.15;99369.44;4466866;32;33548;-63
2023/07/31 07:13:36;;;;;;;2.85;1.35;;;;;;;22.29;50.03;99371.50;4463592;32;35162;-62
2023/07/31 07:16:06;;;;;;;2.50;1.20;;;;;;;22.61;49.30;99366.44;4472575;32;34000;-62
2023/07/31 07:18:34;;;;;;;2.05;1.05;;;;;;;22.93;49.23;99375.81;4472474;32;33160;-62
2023/07/31 07:21:04;;;;;;;2.97;1.00;;;;;;;22.80;48.51;99365.69;4482681;32;33804;-63
2023/07/31 07:23:31;;;;;;;2.05;1.08;;;;;;;22.73;48.28;99370.28;4468196;32;33684;-64
2023/07/31 07:25:59;;;;;;;6.53;1.50;;;;;;;22.56;48.36;99370.59;4467890;32;34546;-63
2023/07/31 07:28:28;;;;;;;3.50;1.55;;;;;;;22.88;48.02;99370.94;4466198;32;34074;-63
2023/07/31 07:30:56;;;;;;;2.83;1.27;;;;;;;23.15;46.56;99377.41;4467361;32;34695;-63
2023/07/31 07:33:24;;;;;;;2.67;1.33;;;;;;;23.03;45.84;99370.84;4468745;32;35001;-63
2023/07/31 07:35:51;;;;;;;2.62;1.30;;;;;;;22.45;47.18;99373.06;4477987;32;34721;-63
2023/07/31 07:38:19;;;;;;;1.35;0.98;;;;;;;22.69;46.76;99377.16;4457550;32;33518;-63
2023/07/31 07:40:50;;;;;;;3.87;1.15;;;;;;;22.84;46.20;99377.03;4467314;32;33628;-63
2023/07/31 07:43:17;;;;;;;2.75;1.20;;;;;;;23.21;46.98;99383.91;4469711;32;34041;-62
2023/07/31 07:45:45;;;;;;;3.15;1.35;;;;;;;23.46;46.54;99378.72;4467513;32;34335;-64
2023/07/31 07:48:13;;;;;;;2.47;1.23;;;;;;;23.13;47.33;99375.91;4459735;32;32648;-63
2023/07/31 07:50:40;;;;;;;2.55;1.50;;;;;;;22.73;47.31;99373.84;4463486;32;103242;-62
2023/07/31 07:53:08;;;;;;;4.70;1.20;;;;;;;22.69;47.09;99380.72;4466548;32;34172;-62
2023/07/31 07:55:38;;;;;;;8.38;1.83;;;;;;;22.55;46.88;99373.53;4466610;32;34041;-61
2023/07/31 07:58:05;;;;;;;2.65;1.17;;;;;;;22.41;48.11;99375.34;4462301;32;33497;-62
2023/07/31 08:00:33;;;;;;;6.87;1.73;;;;;;;22.88;46.60;99367.38;4463836;32;33459;-63
2023/07/31 08:03:01;;;;;;;4.55;1.55;;;;;;;22.78;45.23;99370.50;4460077;32;34163;-64
2023/07/31 08:05:28;;;;;;;5.75;1.20;;;;;;;23.06;44.51;99364.97;4462413;32;35088;-63
2023/07/31 08:07:59;;;;;;;3.03;1.05;;;;;;;22.97;44.61;99380.69;4461675;32;34093;-63
2023/07/31 08:10:27;;;;;;;2.72;1.33;;;;;;;23.08;44.96;99367.50;4457520;32;33923;-64
2023/07/31 08:12:55;;;;;;;5.00;1.52;;;;;;;23.38;43.65;99376.22;4462968;32;34074;-64
2023/07/31 08:15:22;;;;;;;2.50;1.20;;;;;;;22.88;44.35;99379.16;4463405;32;33722;-63
2023/07/31 08:17:50;;;;;;;2.30;1.02;;;;;;;22.90;43.44;99370.78;4455522;32;32780;-63
2023/07/31 08:20:18;;;;;;;3.90;1.50;;;;;;;22.95;44.53;99374.59;4461766;32;34452;-63
2023/07/31 08:22:46;;;;;;;2.70;1.33;;;;;;;23.28;44.26;99373.88;4458768;32;34692;-63
2023/07/31 08:25:14;;;;;;;3.22;1.17;;;;;;;23.57;44.13;99375.41;4460868;32;34797;-63
2023/07/31 08:27:44;;;;;;;4.87;2.25;;;;;;;23.81;44.49;99379.44;4464288;32;33253;-62
2023/07/31 08:30:12;;;;;;;5.80;1.35;;;;;;;23.91;43.83;99368.91;4461510;32;33277;-63
2023/07/31 08:32:40;;;;;;;2.65;1.45;;;;;;;24.18;43.29;99377.97;4465845;32;33935;-63
2023/07/31 08:35:07;;;;;;;3.22;1.20;;;;;;;23.89;44.20;99387.44;4471422;32;33745;-63
2023/07/31 08:37:35;;;;;;;3.10;1.15;;;;;;;23.86;43.58;99390.59;4463997;32;33082;-64
2023/07/31 08:40:03;;;;;;;2.67;1.30;;;;;;;23.83;43.22;99381.97;4464112;32;33615;-62
2023/07/31 08:42:31;;;;;;;3.75;1.20;;;;;;;24.12;42.40;99380.72;4468368;32;34120;-63
2023/07/31 08:44:59;;;;;;;3.42;1.50;;;;;;;24.47;42.54;99372.28;4451902;32;35026;-62
2023/07/31 08:47:28;;;;;;;3.25;1.33;;;;;;;24.72;43.26;99376.00;4464080;32;33363;-63
2023/07/31 08:49:56;;;;;;;3.62;1.65;;;;;;;24.74;40.66;99370.31;4465764;32;34107;-63
2023/07/31 08:52:23;;;;;;;2.85;1.20;;;;;;;24.10;40.87;99378.16;4454007;32;33806;-63
2023/07/31 08:54:51;;;;;;;7.85;1.33;;;;;;;24.26;42.36;99378.78;4468408;32;34883;-63
2023/07/31 08:57:19;;;;;;;4.68;1.30;;;;;;;24.16;41.53;99384.69;4452382;32;33010;-62
2023/07/31 08:59:46;;;;;;;3.17;1.35;;;;;;;23.80;40.70;99379.66;4455115;32;34688;-63
2023/07/31 09:02:15;;;;;;;4.18;1.40;;;;;;;23.76;41.89;99390.16;4453317;32;34106;-63
2023/07/31 09:04:42;;;;;;;7.18;2.37;;;;;;;24.30;41.79;99385.50;4460489;32;33685;-63
2023/07/31 09:07:13;;;;;;;4.07;1.60;;;;;;;24.28;42.15;99380.28;4455035;32;33251;-61
2023/07/31 09:09:41;;;;;;;7.95;1.92;;;;;;;23.93;42.00;99375.03;4447464;32;35017;-63
2023/07/31 09:12:08;;;;;;;4.53;1.60;;;;;;;24.06;42.75;99371.44;4463874;32;34199;-63
2023/07/31 09:14:37;;;;;;;3.25;1.10;;;;;;;24.49;42.47;99361.94;4468899;32;33469;-63
2023/07/31 09:17:05;;;;;;;7.00;2.30;;;;;;;24.23;41.92;99360.06;4461474;32;34459;-63
2023/07/31 09:19:34;;;;;;;11.20;1.65;;;;;;;24.28;40.78;99366.59;4474760;32;33791;-64
2023/07/31 09:22:01;;;;;;;3.53;1.58;;;;;;;24.46;41.31;99357.75;4467758;32;35138;-64
2023/07/31 09:24:31;;;;;;;5.25;1.20;;;;;;;24.87;41.36;99356.56;4459842;32;35216;-63
2023/07/31 09:27:00;;;;;;;2.33;1.17;;;;;;;25.23;40.74;99360.63;4466782;32;33205;-63
2023/07/31 09:29:29;;;;;;;5.28;1.48;;;;;;;25.05;40.12;99356.69;4467978;32;34501;-63
2023/07/31 09:31:57;;;;;;;3.72;1.65;;;;;;;24.86;39.74;99354.91;4477444;32;33985;-64
2023/07/31 09:34:31;;;;;;;2.55;1.40;;;;;;;24.76;40.56;99346.31;4472459;32;33901;-64
2023/07/31 09:37:01;;;;;;;3.62;1.23;;;;;;;25.18;40.32;99347.59;4448973;32;33527;-65
2023/07/31 09:39:29;;;;;;;2.42;1.10;;;;;;;25.30;40.27;99342.28;4465604;32;33826;-63
2023/07/31 09:41:57;;;;;;;2.62;1.33;;;;;;;25.30;39.53;99343.13;4458475;32;33819;-64
2023/07/31 09:44:39;;;;;;;2.83;1.42;;;;;;;25.56;39.08;99335.78;4466632;32;33799;-63
2023/07/31 09:47:23;;;;;;;4.07;1.08;;;;;;;26.01;39.35;99335.66;4462690;32;33575;-63
2023/07/31 09:49:52;;;;;;;2.90;1.40;;;;;;;26.64;38.00;99338.16;4466957;32;33600;-63
2023/07/31 09:52:20;;;;;;;2.42;1.00;;;;;;;26.29;36.80;99334.31;4458311;32;34144;-63
2023/07/31 09:54:48;;;;;;;3.58;1.27;;;;;;;26.24;36.58;99341.31;4466817;32;33882;-64
2023/07/31 09:57:17;;;;;;;3.22;1.35;;;;;;;26.14;37.08;99334.69;4457121;32;32997;-63
2023/07/31 09:59:47;;;;;;;5.22;1.42;;;;;;;25.98;37.51;99344.34;4462387;32;33857;-64
2023/07/31 10:02:20;;;;;;;3.28;1.23;;;;;;;25.97;36.93;99335.28;4457117;32;34214;-63
2023/07/31 10:04:53;;;;;;;3.97;1.30;;;;;;;25.85;36.73;99353.50;4463500;32;33791;-64
2023/07/31 10:07:22;;;;;;;4.00;2.00;;;;;;;25.73;36.98;99347.03;4423000;32;34156;-63
2023/07/31 10:09:51;;;;;;;4.97;1.62;;;;;;;26.16;36.29;99347.13;4422102;32;33729;-64
2023/07/31 10:12:21;;;;;;;2.78;1.12;;;;;;;26.38;35.18;99339.28;4404598;32;33744;-64
2023/07/31 10:14:49;;;;;;;1.62;0.93;;;;;;;26.37;35.27;99343.09;4419467;32;33759;-63
2023/07/31 10:17:18;;;;;;;6.70;1.27;;;;;;;26.75;34.92;99342.06;4420435;32;32929;-64
2023/07/31 10:19:45;;;;;;;3.15;1.23;;;;;;;26.60;35.64;99338.87;4425615;32;33745;-63
2023/07/31 10:22:13;;;;;;;8.93;1.70;;;;;;;26.10;35.20;99328.81;4419534;32;33838;-63
2023/07/31 10:24:45;;;;;;;2.70;1.42;;;;;;;25.96;36.39;99336.31;4430037;32;34337;-63
2023/07/31 10:27:12;;;;;;;4.82;1.37;;;;;;;26.27;36.01;99339.22;4413723;32;33325;-63
2023/07/31 10:29:42;;;;;;;2.55;1.10;;;;;;;26.74;34.87;99342.28;4423824;32;33779;-63
2023/07/31 10:32:11;;;;;;;5.85;1.37;;;;;;;26.79;35.36;99343.28;4418940;32;32878;-63
2023/07/31 10:34:40;;;;;;;4.85;1.45;;;;;;;27.11;35.10;99343.09;4407090;32;33791;-63
2023/07/31 10:37:21;;;;;;;4.20;1.35;;;;;;;27.25;34.81;99346.50;4388230;32;33590;-64
2023/07/31 10:40:02;;;;;;;3.87;1.35;;;;;;;27.36;34.18;99334.75;4428570;32;34925;-63
2023/07/31 10:42:38;;;;;;;3.83;1.45;;;;;;;26.80;34.34;99328.47;4435496;32;35124;-64
2023/07/31 10:45:12;;;;;;;4.47;1.52;;;;;;;27.21;34.54;99334.31;4436660;32;33828;-63
2023/07/31 10:47:44;;;;;;;1.02;0.80;;;;;;;27.61;34.14;99324.41;4434295;32;33020;-63
2023/07/31 10:50:23;;;;;;;2.12;1.08;;;;;;;27.28;34.27;99324.06;4434157;32;33357;-64
2023/07/31 10:52:57;;;;;;;7.15;1.95;;;;;;;27.95;32.54;99324.72;4435309;32;33911;-64
2023/07/31 10:55:32;;;;;;;4.03;1.27;;;;;;;27.81;32.63;99318.62;4433539;32;35036;-64
2023/07/31 10:58:12;;;;;;;2.10;1.08;;;;;;;28.20;32.20;99320.91;4442088;32;33088;-65
2023/07/31 11:00:42;;;;;;;5.35;1.58;;;;;;;28.00;32.39;99324.03;4434175;32;34708;-65
2023/07/31 11:03:16;;;;;;;2.30;1.17;;;;;;;27.85;31.85;99318.97;4438512;32;33852;-65
2023/07/31 11:05:47;;;;;;;4.32;1.45;;;;;;;27.63;32.35;99321.41;4436274;32;33730;-64
2023/07/31 11:08:16;;;;;;;3.37;1.37;;;;;;;28.06;32.67;99310.16;4446663;32;34037;-64
2023/07/31 11:10:45;;;;;;;2.55;1.30;;;;;;;28.12;32.30;99310.25;4449494;32;34688;-65
2023/07/31 11:13:13;;;;;;;4.53;1.35;;;;;;;28.41;31.80;99297.44;4456426;32;33837;-65
2023/07/31 11:15:41;;;;;;;5.32;1.17;;;;;;;28.45;30.60;99307.75;4448232;32;33719;-64
2023/07/31 11:18:10;;;;;;;2.28;1.12;;;;;;;27.89;31.11;99311.09;4448890;32;34443;-64
2023/07/31 11:20:38;;;;;;;3.90;1.70;;;;;;;28.12;31.00;99315.75;4454126;32;33916;-64
2023/07/31 11:23:09;;;;;;;4.82;1.58;;;;;;;28.16;29.25;99308.72;4450365;32;33805;-64
2023/07/31 11:25:38;;;;;;;5.87;1.30;;;;;;;27.30;31.46;99297.22;4450159;32;33910;-65
2023/07/31 11:28:07;;;;;;;3.33;1.62;;;;;;;27.15;31.50;99295.72;4449254;32;33196;-64
2023/07/31 11:30:35;;;;;;;3.58;1.15;;;;;;;28.05;31.22;99296.62;4450766;32;33581;-64
2023/07/31 11:33:04;;;;;;;3.83;1.48;;;;;;;27.83;30.11;99294.47;4448173;32;34559;-64
2023/07/31 11:35:33;;;;;;;4.72;1.23;;;;;;;27.25;30.83;99299.81;4446105;32;34659;-65
2023/07/31 11:38:01;;;;;;;2.05;0.93;;;;;;;27.60;30.60;99295.22;4445841;32;33209;-63
2023/07/31 11:40:29;;;;;;;2.03;1.10;;;;;;;27.68;30.85;99288.56;4449375;32;34782;-64